Time;durP1;ratioP1;P1;durP2;ratioP2;P2;SDS_P1;SDS_P2;PMS_P1;PMS_P2;Temp;Humidity;BMP_temperature;BMP_pressure;BME280_temperature;BME280_humidity;BME280_pressure;Samples;Min_cycle;Max_cycle;Signal;HPM_P1;HPM_P2
2021/12/21 00:01:12;;;;;;;10.00;7.60;;;-0.10;99.90;;;;;;6283259;22;20144;-52
2021/12/21 00:03:37;;;;;;;14.37;7.50;;;0.10;99.90;;;;;;6274008;22;20188;-53
2021/12/21 00:06:03;;;;;;;9.17;7.37;;;0.00;99.90;;;;;;6284041;22;20599;-53
2021/12/21 00:08:29;;;;;;;15.90;7.20;;;-0.10;99.90;;;;;;6283926;22;20155;-53
2021/12/21 00:10:55;;;;;;;14.50;7.50;;;0.00;99.90;;;;;;6283815;22;20375;-52
2021/12/21 00:16:28;;;;;;;9.35;6.82;;;0.00;99.90;;;;;;6284315;22;20136;-52
2021/12/21 00:21:37;;;;;;;9.25;6.75;;;-0.30;99.90;;;;;;6284052;22;20145;-52
2021/12/21 00:24:12;;;;;;;10.88;7.00;;;-0.70;99.90;;;;;;6283988;22;20180;-52
2021/12/21 00:26:38;;;;;;;13.60;7.22;;;-0.10;99.90;;;;;;6283762;22;20207;-53
2021/12/21 00:29:03;;;;;;;14.30;7.23;;;-0.20;99.90;;;;;;6273746;22;20179;-52
2021/12/21 00:31:31;;;;;;;11.23;6.57;;;-0.10;99.90;;;;;;6274105;22;20414;-52
2021/12/21 00:33:58;;;;;;;9.75;6.97;;;-0.40;99.90;;;;;;6273999;22;20927;-52
2021/12/21 00:36:26;;;;;;;11.10;6.65;;;-0.10;99.90;;;;;;6283105;22;20596;-52
2021/12/21 00:38:54;;;;;;;9.70;6.65;;;-0.30;99.90;;;;;;6283019;22;20160;-52
2021/12/21 00:41:20;;;;;;;12.65;7.72;;;-0.10;99.90;;;;;;6282700;22;20194;-51
2021/12/21 00:43:46;;;;;;;11.85;6.40;;;-0.40;99.90;;;;;;6273520;22;20246;-52
2021/12/21 00:46:13;;;;;;;10.20;5.73;;;0.30;99.90;;;;;;6272266;22;20515;-52
2021/12/21 00:48:47;;;;;;;11.70;6.93;;;0.10;99.90;;;;;;6283512;22;20454;-51
2021/12/21 00:51:13;;;;;;;8.02;6.25;;;-0.10;99.90;;;;;;6273317;22;20484;-52
2021/12/21 00:53:40;;;;;;;10.65;6.10;;;-0.30;99.90;;;;;;6273472;22;20183;-51
2021/12/21 00:56:06;;;;;;;10.18;6.80;;;-0.30;99.90;;;;;;6283679;22;20258;-52
2021/12/21 00:58:31;;;;;;;12.25;7.93;;;-0.40;99.90;;;;;;6283247;22;20160;-52
2021/12/21 01:01:01;;;;;;;9.00;6.63;;;-0.90;99.90;;;;;;6273234;22;20161;-52
2021/12/21 01:03:27;;;;;;;7.43;5.40;;;-0.30;99.90;;;;;;6283555;22;20202;-53
2021/12/21 01:06:05;;;;;;;9.60;6.20;;;-0.20;99.90;;;;;;6283587;22;20150;-53
2021/12/21 01:08:47;;;;;;;10.85;6.32;;;-0.30;99.90;;;;;;6283643;22;20129;-51
2021/12/21 01:11:22;;;;;;;13.70;6.72;;;-0.50;99.90;;;;;;6283375;22;20581;-52
2021/12/21 01:21:54;;;;;;;10.40;5.78;;;-0.50;99.90;;;;;;6188284;23;20236;-52
2021/12/21 01:24:50;;;;;;;10.52;5.90;;;-0.80;99.90;;;;;;6271844;22;20510;-52
2021/12/21 01:37:25;;;;;;;8.52;6.25;;;-1.00;99.90;;;;;;6283307;22;20172;-53
2021/12/21 01:42:27;;;;;;;9.60;5.90;;;-1.00;99.90;;;;;;6283556;22;20156;-52
2021/12/21 01:50:29;;;;;;;9.50;6.03;;;-0.30;99.90;;;;;;6247311;22;20160;-53
2021/12/21 01:52:54;;;;;;;12.40;6.37;;;-0.60;99.90;;;;;;6283533;22;20278;-52
2021/12/21 01:55:20;;;;;;;10.57;5.77;;;-0.60;99.90;;;;;;6283757;22;20192;-53
2021/12/21 01:57:46;;;;;;;8.30;6.20;;;-0.60;99.90;;;;;;6281514;22;20163;-53
2021/12/21 02:00:12;;;;;;;9.00;6.23;;;-0.60;99.90;;;;;;6283254;22;20183;-53
2021/12/21 02:02:38;;;;;;;7.75;5.78;;;-0.60;99.90;;;;;;6271686;22;20157;-52
2021/12/21 02:05:04;;;;;;;6.73;5.53;;;-0.60;99.90;;;;;;6283491;22;20187;-52
2021/12/21 02:07:29;;;;;;;9.95;6.65;;;-0.90;99.90;;;;;;6272552;22;20515;-53
2021/12/21 02:09:55;;;;;;;7.63;5.20;;;-0.70;99.90;;;;;;6271647;22;20158;-53
2021/12/21 02:12:21;;;;;;;8.70;6.17;;;-1.20;99.90;;;;;;6272472;22;20158;-53
2021/12/21 02:14:55;;;;;;;14.07;6.20;;;-0.80;99.90;;;;;;6283676;22;20168;-53
2021/12/21 02:19:59;;;;;;;10.27;5.85;;;-0.70;99.90;;;;;;6283016;22;20603;-52
2021/12/21 02:22:27;;;;;;;9.88;6.15;;;-0.60;99.90;;;;;;6283263;22;20156;-53
2021/12/21 02:25:20;;;;;;;9.40;5.50;;;-0.70;99.90;;;;;;6283250;22;20269;-53
2021/12/21 02:27:56;;;;;;;8.75;5.80;;;-1.10;99.90;;;;;;6272396;22;20163;-53
2021/12/21 02:30:22;;;;;;;12.00;7.10;;;-0.60;99.90;;;;;;6283359;22;20144;-51
2021/12/21 02:32:48;;;;;;;8.48;5.88;;;-0.70;99.90;;;;;;6272271;22;20241;-51
2021/12/21 02:35:15;;;;;;;8.00;6.03;;;-0.80;99.90;;;;;;6274168;22;20503;-51
2021/12/21 02:37:41;;;;;;;9.25;5.40;;;-0.90;99.90;;;;;;6284517;22;20189;-52
2021/12/21 02:40:07;;;;;;;13.00;5.93;;;-0.70;99.90;;;;;;6274231;22;20250;-51
2021/12/21 02:42:33;;;;;;;12.10;6.32;;;-0.70;99.90;;;;;;6274648;22;20156;-52
2021/12/21 02:44:59;;;;;;;9.60;5.57;;;-1.00;99.90;;;;;;6274994;22;20184;-52
2021/12/21 02:47:24;;;;;;;16.30;6.30;;;-0.60;99.90;;;;;;6284747;22;20539;-52
2021/12/21 02:49:50;;;;;;;8.10;5.73;;;-0.60;99.90;;;;;;6284916;22;20187;-52
2021/12/21 02:52:16;;;;;;;7.03;5.00;;;-1.30;99.90;;;;;;6284305;22;20171;-51
2021/12/21 02:54:41;;;;;;;9.03;5.57;;;-0.60;99.90;;;;;;6285070;22;20685;-53
2021/12/21 02:57:07;;;;;;;7.90;5.10;;;-0.70;99.90;;;;;;6283179;22;20247;-53
2021/12/21 02:59:33;;;;;;;9.63;4.70;;;-1.60;99.90;;;;;;6284214;22;20407;-52
2021/12/21 03:01:59;;;;;;;8.90;5.50;;;-0.90;99.90;;;;;;6274374;22;20149;-52
2021/12/21 03:04:24;;;;;;;5.90;4.33;;;-1.00;99.90;;;;;;6284314;22;20278;-52
2021/12/21 03:10:00;;;;;;;9.13;5.65;;;-1.20;99.90;;;;;;6233478;22;20161;-52
2021/12/21 03:15:11;;;;;;;9.02;5.70;;;-1.10;99.90;;;;;;6285156;22;20398;-53
2021/12/21 03:17:36;;;;;;;10.70;5.87;;;-1.00;99.90;;;;;;6283786;22;20152;-52
2021/12/21 03:20:03;;;;;;;8.63;5.10;;;-0.90;99.90;;;;;;6273223;22;20227;-51
2021/12/21 03:22:28;;;;;;;8.40;5.57;;;-1.00;99.90;;;;;;6284604;22;20229;-52
2021/12/21 03:24:54;;;;;;;9.80;5.43;;;-1.80;99.90;;;;;;6284525;22;20597;-52
2021/12/21 03:27:19;;;;;;;10.63;5.23;;;-1.00;99.90;;;;;;6283798;22;20159;-52
2021/12/21 03:29:45;;;;;;;5.87;5.00;;;-1.50;99.90;;;;;;6284722;22;20213;-52
2021/12/21 03:32:10;;;;;;;6.90;5.43;;;-1.00;99.90;;;;;;6274393;22;20155;-52
2021/12/21 03:34:36;;;;;;;11.67;5.63;;;-0.90;99.90;;;;;;6274175;22;20311;-51
2021/12/21 03:37:05;;;;;;;8.27;5.93;;;-1.10;99.90;;;;;;6283782;22;20163;-52
2021/12/21 03:39:30;;;;;;;8.77;5.05;;;-1.10;99.90;;;;;;6273545;22;20170;-52
2021/12/21 03:41:58;;;;;;;6.00;4.93;;;-0.90;99.90;;;;;;6283835;22;20591;-52
2021/12/21 03:44:26;;;;;;;6.25;5.22;;;-0.80;99.90;;;;;;6273558;22;20196;-52
2021/12/21 03:46:54;;;;;;;6.03;4.63;;;-0.80;99.90;;;;;;6274039;22;20185;-52
2021/12/21 03:51:52;;;;;;;6.22;4.00;;;-1.70;99.90;;;;;;6284510;22;20171;-52
2021/12/21 03:54:17;;;;;;;7.43;5.00;;;-1.10;99.90;;;;;;6283966;22;20186;-51
2021/12/21 03:56:48;;;;;;;8.85;5.28;;;-1.10;99.90;;;;;;6273035;22;20662;-52
2021/12/21 03:59:14;;;;;;;8.30;4.90;;;-1.70;99.90;;;;;;6283491;22;20272;-53
2021/12/21 04:01:39;;;;;;;6.90;5.03;;;-1.30;99.90;;;;;;6284210;22;20159;-51
2021/12/21 04:04:05;;;;;;;8.63;5.63;;;-1.10;99.90;;;;;;6284254;22;20217;-52
2021/12/21 04:06:31;;;;;;;8.80;5.20;;;-1.60;99.90;;;;;;6284082;22;20156;-52
2021/12/21 04:08:56;;;;;;;6.97;4.93;;;-1.00;99.90;;;;;;6283847;22;20390;-53
2021/12/21 04:11:22;;;;;;;5.90;4.43;;;-1.00;99.90;;;;;;6273750;22;20389;-52
2021/12/21 04:13:48;;;;;;;9.40;5.40;;;-1.20;99.90;;;;;;6284221;22;20178;-52
2021/12/21 04:16:14;;;;;;;7.33;4.50;;;-1.40;99.90;;;;;;6273737;22;20385;-52
2021/12/21 04:18:40;;;;;;;7.03;4.67;;;-1.40;99.90;;;;;;6272784;22;20672;-52
2021/12/21 04:21:09;;;;;;;9.18;5.25;;;-1.20;99.90;;;;;;6272910;22;20397;-52
2021/12/21 04:23:35;;;;;;;7.25;5.20;;;-1.30;99.90;;;;;;6283756;22;20189;-52
2021/12/21 04:26:01;;;;;;;8.27;5.80;;;-1.70;99.90;;;;;;6284110;22;20255;-51
2021/12/21 04:28:26;;;;;;;7.00;4.93;;;-1.80;99.90;;;;;;6283762;22;20157;-51
2021/12/21 04:30:52;;;;;;;11.20;5.30;;;-1.10;99.90;;;;;;6283966;22;20155;-52
2021/12/21 04:33:18;;;;;;;8.43;5.73;;;-1.50;99.90;;;;;;6283941;22;20552;-52
2021/12/21 04:35:43;;;;;;;8.77;4.80;;;-1.40;99.90;;;;;;6283631;22;20493;-52
2021/12/21 04:38:22;;;;;;;7.30;5.17;;;-0.80;99.90;;;;;;6283141;22;20150;-52
2021/12/21 04:40:54;;;;;;;6.43;4.88;;;-1.00;99.90;;;;;;6283187;22;20159;-52
2021/12/21 04:43:20;;;;;;;7.75;5.10;;;-1.10;99.90;;;;;;6283716;22;20174;-51
2021/12/21 04:45:46;;;;;;;5.80;4.73;;;-1.80;99.90;;;;;;6284121;22;20149;-52
2021/12/21 04:48:12;;;;;;;9.87;5.70;;;-1.10;99.90;;;;;;6273276;22;20498;-56
2021/12/21 04:50:38;;;;;;;6.75;4.45;;;-1.20;99.90;;;;;;6272950;22;20508;-51
2021/12/21 04:53:03;;;;;;;7.47;4.77;;;-1.30;99.90;;;;;;6284152;22;20138;-52
2021/12/21 04:55:29;;;;;;;5.80;4.80;;;-1.30;99.90;;;;;;6273138;22;20869;-52
2021/12/21 04:57:56;;;;;;;9.57;5.07;;;-1.30;99.90;;;;;;6272288;22;20180;-53
2021/12/21 05:00:22;;;;;;;7.53;4.65;;;-1.00;99.90;;;;;;6272978;22;20162;-52
2021/12/21 05:02:47;;;;;;;7.40;4.50;;;-1.40;99.90;;;;;;6283588;22;20182;-53
2021/12/21 05:05:13;;;;;;;9.40;5.53;;;-1.30;99.90;;;;;;6283110;22;20287;-53
2021/12/21 05:07:41;;;;;;;8.80;5.30;;;-1.50;99.90;;;;;;6283197;22;20230;-51
2021/12/21 05:10:09;;;;;;;6.47;5.15;;;-1.70;99.90;;;;;;6283887;22;20145;-51
2021/12/21 05:12:36;;;;;;;8.50;4.80;;;-1.70;99.90;;;;;;6284218;22;20197;-51
2021/12/21 05:15:04;;;;;;;5.15;3.67;;;-1.40;99.90;;;;;;6284005;22;20172;-52
2021/12/21 05:17:30;;;;;;;9.25;5.10;;;-1.70;99.90;;;;;;6282555;22;20154;-53
2021/12/21 05:19:56;;;;;;;7.07;4.67;;;-1.50;99.90;;;;;;6282417;22;20822;-52
2021/12/21 05:22:23;;;;;;;10.43;5.07;;;-1.70;99.90;;;;;;6283578;22;20394;-52
2021/12/21 05:24:48;;;;;;;6.10;4.30;;;-1.50;99.90;;;;;;6273187;22;20379;-52
2021/12/21 05:27:14;;;;;;;6.13;4.73;;;-1.40;99.90;;;;;;6273262;22;20181;-52
2021/12/21 05:29:40;;;;;;;7.33;5.03;;;-1.40;99.90;;;;;;6273365;22;20385;-53
2021/12/21 05:32:06;;;;;;;11.60;5.30;;;-1.30;99.90;;;;;;6272599;22;20161;-53
2021/12/21 05:34:32;;;;;;;7.97;5.45;;;-1.30;99.90;;;;;;6283168;22;20173;-52
2021/12/21 05:36:58;;;;;;;5.97;4.75;;;-1.40;99.90;;;;;;6282566;22;20259;-51
2021/12/21 05:39:27;;;;;;;6.47;5.17;;;-1.50;99.90;;;;;;6272383;22;20175;-52
2021/12/21 05:41:54;;;;;;;13.07;6.30;;;-1.00;99.90;;;;;;6270831;22;20526;-52
2021/12/21 05:44:23;;;;;;;7.65;5.50;;;-1.40;99.90;;;;;;6272785;22;20182;-52
2021/12/21 05:46:50;;;;;;;7.50;4.70;;;-1.20;99.90;;;;;;6282801;22;20201;-53
2021/12/21 05:49:16;;;;;;;5.85;4.72;;;-1.40;99.90;;;;;;6272672;22;20162;-52
2021/12/21 05:51:42;;;;;;;7.72;5.15;;;-1.40;99.90;;;;;;6282547;22;20166;-52
2021/12/21 05:54:08;;;;;;;10.45;5.65;;;-1.50;99.90;;;;;;6283186;22;20687;-52
2021/12/21 05:56:34;;;;;;;10.00;5.73;;;-1.30;99.90;;;;;;6280762;22;20162;-51
2021/12/21 05:59:02;;;;;;;8.98;4.32;;;-2.10;99.90;;;;;;6272347;22;20385;-51
2021/12/21 06:01:29;;;;;;;8.40;5.82;;;-1.30;99.90;;;;;;6269502;22;20207;-54
2021/12/21 06:03:55;;;;;;;8.18;5.95;;;-1.70;99.90;;;;;;6282319;22;20240;-52
2021/12/21 06:06:21;;;;;;;10.53;5.23;;;-1.50;99.90;;;;;;6282695;22;20576;-51
2021/12/21 06:08:48;;;;;;;10.10;5.73;;;-2.10;99.90;;;;;;6272923;22;20177;-51
2021/12/21 06:11:15;;;;;;;13.57;5.85;;;-1.70;99.90;;;;;;6271163;22;20491;-51
2021/12/21 06:26:30;;;;;;;7.63;4.47;;;-1.70;99.90;;;;;;6285041;22;20251;-53
2021/12/21 06:28:56;;;;;;;8.50;5.70;;;-1.70;99.90;;;;;;6284857;22;20389;-53
2021/12/21 06:31:21;;;;;;;9.80;4.97;;;-1.90;99.90;;;;;;6284428;22;20390;-51
2021/12/21 06:33:47;;;;;;;9.87;4.93;;;-1.70;99.90;;;;;;6274326;22;20234;-51
2021/12/21 06:36:13;;;;;;;14.03;6.03;;;-1.80;99.90;;;;;;6284148;22;20156;-53
2021/12/21 06:38:39;;;;;;;9.68;5.63;;;-1.70;99.90;;;;;;6274051;22;20458;-52
2021/12/21 06:41:05;;;;;;;8.30;5.13;;;-1.80;99.90;;;;;;6284857;22;20168;-52
2021/12/21 06:43:32;;;;;;;12.23;5.10;;;-1.70;99.90;;;;;;6285039;22;20497;-52
2021/12/21 06:51:31;;;;;;;9.80;5.70;;;-1.80;99.90;;;;;;6247607;22;20257;-51
2021/12/21 06:53:58;;;;;;;9.90;5.57;;;-1.90;99.90;;;;;;6284308;22;20190;-54
2021/12/21 06:56:25;;;;;;;7.00;5.63;;;-1.90;99.90;;;;;;6284123;22;20164;-52
2021/12/21 06:58:53;;;;;;;6.60;5.10;;;-1.80;99.90;;;;;;6284863;22;20594;-53
2021/12/21 07:01:19;;;;;;;7.82;5.28;;;-1.80;99.90;;;;;;6284822;22;20150;-52
2021/12/21 07:03:45;;;;;;;9.70;5.57;;;-1.90;99.90;;;;;;6284197;22;20235;-53
2021/12/21 07:06:12;;;;;;;8.03;5.90;;;-1.70;99.90;;;;;;6284267;22;20230;-53
2021/12/21 07:09:04;;;;;;;10.15;5.50;;;-1.30;99.90;;;;;;6284077;22;20373;-53
2021/12/21 07:19:24;;;;;;;9.23;5.72;;;-1.90;99.90;;;;;;6284615;22;20149;-52
2021/12/21 07:21:50;;;;;;;8.70;5.70;;;-1.70;99.90;;;;;;6284632;22;20162;-52
2021/12/21 07:24:16;;;;;;;6.10;4.93;;;-1.70;99.90;;;;;;6273755;22;20198;-53
2021/12/21 07:26:41;;;;;;;8.77;6.17;;;-1.80;99.90;;;;;;6283270;22;20430;-53
2021/12/21 07:29:07;;;;;;;11.50;5.80;;;-1.90;99.90;;;;;;6284126;22;20187;-53
2021/12/21 07:31:32;;;;;;;11.80;6.17;;;-2.00;99.90;;;;;;6284254;22;20600;-52
2021/12/21 07:33:58;;;;;;;5.83;5.23;;;-1.90;99.90;;;;;;6272564;22;20228;-53
2021/12/21 07:36:30;;;;;;;9.30;6.30;;;-1.70;99.90;;;;;;6284015;22;20165;-52
2021/12/21 07:38:56;;;;;;;8.65;5.30;;;-1.50;99.90;;;;;;6283808;22;20444;-51
2021/12/21 07:41:22;;;;;;;9.25;6.38;;;-1.50;99.90;;;;;;6283597;22;20582;-51
2021/12/21 07:43:48;;;;;;;9.73;5.50;;;-1.60;99.90;;;;;;6283969;22;20178;-51
2021/12/21 07:46:13;;;;;;;7.83;5.80;;;-1.50;99.90;;;;;;6284639;22;20161;-51
2021/12/21 07:48:40;;;;;;;13.77;5.70;;;-1.60;99.90;;;;;;6273322;22;20207;-53
2021/12/21 07:51:07;;;;;;;11.32;6.75;;;-1.70;99.90;;;;;;6283612;22;20562;-57
2021/12/21 07:53:33;;;;;;;22.65;7.53;;;-1.60;99.90;;;;;;6284440;22;20173;-53
2021/12/21 07:56:02;;;;;;;13.13;6.70;;;-1.70;99.90;;;;;;6273727;22;20157;-51
2021/12/21 07:58:29;;;;;;;9.48;6.13;;;-1.70;99.90;;;;;;6272946;22;20671;-51
2021/12/21 08:00:58;;;;;;;9.77;5.72;;;-1.70;99.90;;;;;;6284525;22;20224;-53
2021/12/21 08:03:24;;;;;;;10.20;6.90;;;-1.70;99.90;;;;;;6273047;22;20522;-51
2021/12/21 08:05:53;;;;;;;11.17;6.60;;;-1.70;99.90;;;;;;6283821;22;20150;-53
2021/12/21 08:08:21;;;;;;;12.20;6.95;;;-2.20;99.90;;;;;;6283454;22;20387;-52
2021/12/21 08:13:17;;;;;;;8.75;5.65;;;-1.90;99.90;;;;;;6283588;22;20559;-51
2021/12/21 08:15:42;;;;;;;10.90;5.32;;;-1.80;99.90;;;;;;6284105;22;20159;-52
2021/12/21 08:18:08;;;;;;;10.27;6.73;;;-2.30;99.90;;;;;;6283297;22;20251;-51
2021/12/21 08:20:35;;;;;;;10.83;7.20;;;-1.50;99.90;;;;;;6283383;22;20379;-52
2021/12/21 08:23:00;;;;;;;9.57;6.20;;;-1.70;99.90;;;;;;6272721;22;20168;-51
2021/12/21 08:25:27;;;;;;;9.77;6.23;;;-1.50;99.90;;;;;;6273097;22;20628;-52
2021/12/21 08:27:54;;;;;;;9.27;6.57;;;-1.60;99.90;;;;;;6282953;22;20146;-51
2021/12/21 08:30:20;;;;;;;8.50;6.78;;;-1.40;99.90;;;;;;6283216;22;20588;-51
2021/12/21 08:32:46;;;;;;;10.80;6.60;;;-1.40;99.90;;;;;;6273039;22;20195;-51
2021/12/21 08:35:14;;;;;;;8.80;8.00;;;-2.00;99.90;;;;;;6283028;22;20174;-52
2021/12/21 08:37:41;;;;;;;8.55;6.70;;;-1.50;99.90;;;;;;6272974;22;20164;-52
2021/12/21 08:40:10;;;;;;;8.52;6.60;;;-1.30;99.90;;;;;;6283494;22;20153;-52
2021/12/21 08:42:37;;;;;;;12.30;6.68;;;-1.30;99.90;;;;;;6283374;22;20151;-52
2021/12/21 08:45:06;;;;;;;9.85;7.18;;;-1.10;99.90;;;;;;6283791;22;20518;-55
2021/12/21 08:47:33;;;;;;;20.05;8.70;;;-1.00;99.90;;;;;;6272693;22;20465;-53
2021/12/21 08:49:59;;;;;;;13.23;7.13;;;-1.30;99.90;;;;;;6273128;22;20156;-52
2021/12/21 08:52:24;;;;;;;9.83;6.90;;;-1.00;99.90;;;;;;6272481;22;20200;-53
2021/12/21 08:54:50;;;;;;;21.63;7.83;;;-1.00;99.90;;;;;;6273315;22;20418;-53
2021/12/21 08:57:16;;;;;;;13.90;8.40;;;-1.10;99.90;;;;;;6272026;22;20244;-51
2021/12/21 08:59:42;;;;;;;15.60;7.00;;;-1.20;99.90;;;;;;6283656;22;20482;-52
2021/12/21 09:02:08;;;;;;;13.10;7.83;;;-1.60;99.90;;;;;;6273416;22;20392;-53
2021/12/21 09:04:34;;;;;;;9.70;7.50;;;-0.90;99.90;;;;;;6283067;22;20180;-52
2021/12/21 09:07:00;;;;;;;12.67;8.10;;;-0.60;99.90;;;;;;6283486;22;20236;-53
2021/12/21 09:09:25;;;;;;;11.50;8.70;;;-0.80;99.90;;;;;;6283363;22;20845;-51
2021/12/21 09:11:51;;;;;;;15.40;9.20;;;-0.60;99.90;;;;;;6283052;22;20486;-53
2021/12/21 09:14:18;;;;;;;11.50;7.63;;;-0.50;99.90;;;;;;6282885;22;20211;-52
2021/12/21 09:16:44;;;;;;;13.88;7.90;;;-0.80;99.90;;;;;;6273011;22;20164;-52
2021/12/21 09:19:09;;;;;;;11.15;8.18;;;-0.60;99.90;;;;;;6270885;22;20212;-50
2021/12/21 09:21:35;;;;;;;10.93;7.40;;;-0.60;99.90;;;;;;6283132;22;20305;-51
2021/12/21 09:24:00;;;;;;;13.97;8.47;;;-0.30;99.90;;;;;;6272380;22;20216;-53
2021/12/21 09:26:27;;;;;;;12.80;8.50;;;-0.20;99.90;;;;;;6271236;22;20602;-52
2021/12/21 09:28:53;;;;;;;9.65;7.30;;;0.20;99.90;;;;;;6282768;22;20144;-55
2021/12/21 09:31:20;;;;;;;11.70;8.32;;;0.50;99.90;;;;;;6283745;22;20157;-52
2021/12/21 09:33:45;;;;;;;8.52;7.72;;;1.40;99.90;;;;;;6273020;22;20192;-53
2021/12/21 09:36:11;;;;;;;10.37;7.70;;;1.70;99.90;;;;;;6283051;22;20253;-52
2021/12/21 09:38:37;;;;;;;7.38;6.63;;;2.20;99.90;;;;;;6283063;22;20153;-54
2021/12/21 09:41:04;;;;;;;8.87;7.33;;;1.70;99.90;;;;;;6283149;22;20159;-53
2021/12/21 09:43:30;;;;;;;8.88;7.13;;;2.10;99.90;;;;;;6274081;22;20520;-52
2021/12/21 09:45:56;;;;;;;12.80;8.00;;;1.30;99.90;;;;;;6274841;22;20156;-51
2021/12/21 09:48:23;;;;;;;9.57;7.53;;;0.60;99.90;;;;;;6284770;22;20716;-53
2021/12/21 09:50:49;;;;;;;8.68;7.60;;;1.60;99.90;;;;;;6274810;22;20175;-51
2021/12/21 09:53:15;;;;;;;14.10;8.70;;;2.10;99.90;;;;;;6275147;22;20168;-52
2021/12/21 09:55:41;;;;;;;11.63;7.43;;;1.60;99.90;;;;;;6274919;22;20411;-52
2021/12/21 09:58:06;;;;;;;10.80;7.43;;;1.30;99.90;;;;;;6284279;22;20162;-52
2021/12/21 10:00:33;;;;;;;13.33;7.50;;;1.60;99.90;;;;;;6285230;22;20259;-51
2021/12/21 10:03:07;;;;;;;9.73;7.65;;;2.20;99.90;;;;;;6284657;22;20155;-51
2021/12/21 10:05:36;;;;;;;9.38;6.05;;;3.10;99.90;;;;;;6285368;22;20187;-52
2021/12/21 10:08:05;;;;;;;9.48;8.40;;;3.50;99.90;;;;;;6285012;22;20226;-52
2021/12/21 10:10:37;;;;;;;9.55;7.03;;;3.80;99.90;;;;;;6275035;22;20497;-52
2021/12/21 10:13:16;;;;;;;12.30;7.13;;;3.60;99.90;;;;;;6274760;22;20156;-52
2021/12/21 10:15:47;;;;;;;10.68;7.28;;;3.70;99.90;;;;;;6285097;22;20161;-52
2021/12/21 10:18:14;;;;;;;7.75;6.55;;;4.40;99.90;;;;;;6284722;22;20151;-50
2021/12/21 10:20:42;;;;;;;9.95;7.13;;;4.90;99.90;;;;;;6284688;22;20225;-52
2021/12/21 10:23:24;;;;;;;10.40;7.50;;;5.70;98.20;;;;;;6274766;22;20214;-52
2021/12/21 10:25:57;;;;;;;10.77;8.65;;;6.60;96.90;;;;;;6273815;22;20153;-51
2021/12/21 10:28:39;;;;;;;11.23;8.73;;;6.30;94.90;;;;;;6273925;22;20152;-51
2021/12/21 10:31:25;;;;;;;10.45;8.50;;;6.80;95.30;;;;;;6284248;22;20153;-52
2021/12/21 10:33:52;;;;;;;7.82;6.80;;;7.30;93.70;;;;;;6273915;22;20251;-53
2021/12/21 10:36:18;;;;;;;9.88;8.07;;;7.40;93.00;;;;;;6284274;22;20584;-51
2021/12/21 10:38:51;;;;;;;9.20;7.60;;;8.20;91.80;;;;;;6273901;22;20184;-51
2021/12/21 10:41:18;;;;;;;10.90;7.53;;;8.40;90.00;;;;;;6271879;22;20869;-51
2021/12/21 10:44:15;;;;;;;11.50;8.20;;;8.50;88.80;;;;;;6283883;22;20191;-51
2021/12/21 10:46:47;;;;;;;9.27;7.82;;;8.00;89.60;;;;;;6272449;22;20179;-51
2021/12/21 10:49:17;;;;;;;8.52;7.70;;;8.30;88.40;;;;;;6284318;22;20137;-53
2021/12/21 10:51:54;;;;;;;9.10;7.18;;;8.30;88.50;;;;;;6273953;22;20486;-52
2021/12/21 10:54:40;;;;;;;8.00;7.20;;;8.60;86.60;;;;;;6283952;22;20172;-52
2021/12/21 10:57:15;;;;;;;13.73;8.05;;;8.70;86.90;;;;;;6273033;22;20151;-54
2021/12/21 10:59:43;;;;;;;9.05;7.30;;;8.20;87.60;;;;;;6273816;22;20515;-53
2021/12/21 11:02:19;;;;;;;8.65;6.70;;;8.00;89.00;;;;;;6273443;22;20167;-51
2021/12/21 11:04:53;;;;;;;7.22;5.78;;;7.80;89.60;;;;;;6283648;22;20172;-52
2021/12/21 11:10:27;;;;;;;7.47;6.78;;;7.20;90.50;;;;;;6273471;22;20160;-51
2021/12/21 11:12:57;;;;;;;9.38;6.72;;;7.20;91.30;;;;;;6195993;22;20156;-51
2021/12/21 11:15:29;;;;;;;11.77;6.90;;;7.50;91.30;;;;;;6273767;22;20611;-52
2021/12/21 11:18:05;;;;;;;9.57;6.70;;;7.30;90.70;;;;;;6283855;22;20143;-51
2021/12/21 11:20:31;;;;;;;6.50;5.80;;;6.60;92.30;;;;;;6283140;22;20253;-52
2021/12/21 11:22:56;;;;;;;7.40;6.70;;;5.70;92.30;;;;;;6274401;22;20488;-53
2021/12/21 11:25:23;;;;;;;9.50;6.60;;;5.50;93.30;;;;;;6274071;22;20517;-52
2021/12/21 11:27:50;;;;;;;8.27;6.65;;;5.00;94.20;;;;;;6283055;22;20146;-52
2021/12/21 11:30:19;;;;;;;9.15;5.82;;;5.00;95.20;;;;;;6284714;22;20641;-52
2021/12/21 11:32:49;;;;;;;5.82;5.30;;;4.90;94.30;;;;;;6284958;22;20151;-53
2021/12/21 11:38:00;;;;;;;6.88;5.70;;;5.90;93.40;;;;;;6285414;22;20228;-52
2021/12/21 11:40:33;;;;;;;6.93;6.22;;;6.10;93.40;;;;;;6274064;22;20210;-52
2021/12/21 11:43:22;;;;;;;5.80;5.20;;;5.80;94.10;;;;;;6284536;22;20240;-51
2021/12/21 11:46:24;;;;;;;5.95;5.15;;;5.80;94.10;;;;;;6285127;22;20167;-52
2021/12/21 11:48:59;;;;;;;6.55;5.85;;;5.50;93.60;;;;;;6254150;22;20221;-51
2021/12/21 11:51:27;;;;;;;8.88;5.50;;;5.50;93.80;;;;;;6274074;22;20560;-51
2021/12/21 11:53:54;;;;;;;6.07;5.47;;;5.70;94.30;;;;;;6274410;22;20232;-52
2021/12/21 11:56:25;;;;;;;5.40;4.90;;;5.60;94.10;;;;;;6283931;22;20167;-53
2021/12/21 11:58:53;;;;;;;5.90;5.30;;;5.70;94.00;;;;;;6284509;22;20151;-53
2021/12/21 12:01:30;;;;;;;9.13;6.90;;;5.70;93.70;;;;;;6273998;22;20504;-52
2021/12/21 12:04:00;;;;;;;11.77;6.72;;;5.20;93.70;;;;;;6275119;22;20199;-52
2021/12/21 12:06:28;;;;;;;8.90;6.20;;;5.50;94.70;;;;;;6273519;22;20218;-52
2021/12/21 12:09:01;;;;;;;6.45;5.72;;;5.70;94.50;;;;;;6284614;22;20159;-53
2021/12/21 12:11:35;;;;;;;6.55;5.30;;;5.90;94.00;;;;;;6284666;22;20141;-52
2021/12/21 12:14:18;;;;;;;9.60;5.03;;;6.00;93.80;;;;;;6283050;22;20171;-52
2021/12/21 12:16:57;;;;;;;5.57;5.00;;;5.70;94.40;;;;;;6273874;22;20149;-52
2021/12/21 12:19:35;;;;;;;7.03;5.57;;;5.60;94.50;;;;;;6285077;22;20159;-52
2021/12/21 12:22:04;;;;;;;6.20;5.60;;;5.80;93.80;;;;;;6273638;22;20414;-52
2021/12/21 12:24:39;;;;;;;6.20;5.60;;;5.80;94.10;;;;;;6283918;22;20179;-52
2021/12/21 12:27:17;;;;;;;7.35;5.28;;;5.60;94.10;;;;;;6272847;22;20152;-52
2021/12/21 12:29:59;;;;;;;7.68;5.60;;;5.70;94.40;;;;;;6274098;22;20149;-52
2021/12/21 12:32:43;;;;;;;7.10;5.70;;;5.50;94.60;;;;;;6284819;22;20227;-53
2021/12/21 12:35:14;;;;;;;6.22;4.88;;;5.50;94.40;;;;;;6272250;22;20185;-52
2021/12/21 12:37:53;;;;;;;6.63;5.32;;;5.20;94.60;;;;;;6284104;22;20177;-52
2021/12/21 12:40:23;;;;;;;5.97;4.50;;;5.30;94.60;;;;;;6284190;22;20139;-52
2021/12/21 12:43:09;;;;;;;6.63;5.10;;;4.70;94.50;;;;;;6283332;22;20214;-52
2021/12/21 12:45:50;;;;;;;5.93;4.95;;;5.10;94.80;;;;;;6284183;22;20175;-52
2021/12/21 12:48:25;;;;;;;6.45;4.88;;;4.90;95.10;;;;;;6272710;22;20623;-51
2021/12/21 12:50:56;;;;;;;5.30;4.90;;;4.70;94.90;;;;;;6272359;22;20165;-52
2021/12/21 12:53:32;;;;;;;5.45;4.95;;;4.60;95.40;;;;;;6283508;22;20169;-52
2021/12/21 12:55:59;;;;;;;5.95;5.05;;;4.70;95.80;;;;;;6283126;22;20137;-52
2021/12/21 12:58:28;;;;;;;6.32;5.05;;;4.70;95.50;;;;;;6283246;22;20161;-51
2021/12/21 13:01:04;;;;;;;6.28;4.85;;;4.40;95.30;;;;;;6273018;22;20164;-52
2021/12/21 13:03:41;;;;;;;5.45;4.95;;;4.50;96.30;;;;;;6283664;22;20611;-52
2021/12/21 13:06:10;;;;;;;7.78;4.65;;;4.20;96.50;;;;;;6272476;22;20165;-51
2021/12/21 13:08:36;;;;;;;8.27;4.35;;;4.20;96.50;;;;;;6272660;22;20190;-52
2021/12/21 13:11:02;;;;;;;5.17;4.30;;;4.30;96.80;;;;;;6282973;22;20152;-52
2021/12/21 13:13:39;;;;;;;4.50;4.10;;;4.40;97.10;;;;;;6272820;22;20399;-52
2021/12/21 13:16:06;;;;;;;6.47;5.85;;;4.50;96.70;;;;;;6282911;22;20150;-52
2021/12/21 13:18:32;;;;;;;5.15;4.65;;;4.60;96.10;;;;;;6283330;22;20156;-52
2021/12/21 13:20:59;;;;;;;3.83;3.53;;;4.50;96.20;;;;;;6282960;22;20298;-52
2021/12/21 13:23:26;;;;;;;4.43;3.67;;;4.40;96.10;;;;;;6283415;22;20618;-52
2021/12/21 13:26:07;;;;;;;4.40;3.90;;;4.30;96.00;;;;;;6282756;22;20169;-52
2021/12/21 13:28:45;;;;;;;4.38;3.85;;;4.20;96.10;;;;;;6282621;22;20149;-52
2021/12/21 13:31:10;;;;;;;6.85;3.78;;;4.30;96.00;;;;;;6283051;22;20147;-52
2021/12/21 13:33:40;;;;;;;5.40;4.90;;;4.30;95.90;;;;;;6283103;22;20180;-52
2021/12/21 13:36:08;;;;;;;4.82;3.67;;;3.70;95.50;;;;;;6282899;22;20502;-52
2021/12/21 13:38:36;;;;;;;4.20;3.80;;;4.50;95.50;;;;;;6282441;22;20199;-53
2021/12/21 13:41:16;;;;;;;12.50;7.05;;;4.00;94.90;;;;;;6282528;22;20150;-52
2021/12/21 13:43:57;;;;;;;5.47;3.90;;;4.40;95.60;;;;;;6282778;22;20243;-52
2021/12/21 13:46:23;;;;;;;5.03;3.70;;;4.30;95.50;;;;;;6283071;22;20132;-51
2021/12/21 13:48:54;;;;;;;4.97;3.93;;;4.40;95.80;;;;;;6272500;22;20501;-51
2021/12/21 13:51:21;;;;;;;8.18;4.35;;;3.90;95.60;;;;;;6282446;22;20161;-52
2021/12/21 13:53:58;;;;;;;5.82;4.40;;;4.40;96.40;;;;;;6283171;22;20186;-52
2021/12/21 13:56:30;;;;;;;5.85;5.25;;;4.70;96.70;;;;;;6272036;22;20158;-52
2021/12/21 13:58:57;;;;;;;7.53;5.78;;;4.90;97.10;;;;;;6282793;22;20232;-52
2021/12/21 14:01:32;;;;;;;4.93;4.43;;;4.40;97.60;;;;;;6283171;22;20210;-51
2021/12/21 14:04:10;;;;;;;8.88;5.38;;;4.20;97.80;;;;;;6283146;22;20512;-52
2021/12/21 14:06:39;;;;;;;10.38;6.20;;;4.10;98.20;;;;;;6282782;22;20433;-52
2021/12/21 14:09:06;;;;;;;10.23;7.07;;;3.90;98.30;;;;;;6282779;22;20149;-52
2021/12/21 14:11:38;;;;;;;5.70;5.20;;;4.30;98.30;;;;;;6271933;22;20612;-52
2021/12/21 14:14:13;;;;;;;8.23;6.07;;;4.20;98.30;;;;;;6283140;22;20169;-52